Gibsonton, Florida
Current Conditions -  °F | °C
As of 10:58 PM on Sunday 19 Oct 2014 (Local Time) from KMCF Reporting Station
Few Clouds Few Clouds  
Wind Chill: 74°   Ceiling: Unl
Heat Index: 74°   Visibility: 10mi
Dew Point: 69°   Wind: 7mph
Humidity: 84%   Direction: 110°ESE
Pressure: 30.04"   Gusts: NA
Location:  27.85°N, 82.38°W
Report Text: KMCF 200258Z AUTO 11006KT 10SM FEW060 23/20 A3004 RMK AO2 SLP176 T02320203 52016
Loading
Personal Weather Stations






























Interactive Weather Map
Tropical Storm Tracking
New forecast layout! Learn more

10-Day Weather Forecast

Advertisements
Track Severe Weather on mobile